Tiempo atmosférico en la estación meteorológica de Pozuelo De Tabara, Zamora (711 m.)



Fecha
DESCASC
Temp. máxima en grados centígrados (hora)
DESCASC
Temp. mínima en grados centígrados (hora)
DESCASC
Temp. media en grados centígrados
DESCASC
Racha de viento máxima en m/sg (hora)
DESCASC
Velocidad máxima media en intervalos de 10 minutos(hora)
DESCASC
Precipitaciones diarias en mm
DESCASC
Precipitaciones de 00:00 a 06:00 en mm
DESCASC
Precipitaciones de 06:00 a 12:00 en mm
DESCASC
Precipitaciones de 12:00 a 18:00 en mm
DESCASC
Precipitaciones de 18:00 a 24:00 en mm
DESCASC
15-08-2019 -- (--) -- (--) -- -- (--) -- (--) -- -- -- -- --
14-08-2019 32.3 (18:20) 11.9 (00:00) 22.1 7.5 (15:00) 4.44 (19:20) 0 0 0 0 0
13-08-2019 -- (--) -- (--) -- -- (--) -- (--) -- 0 0 -- 0
12-08-2019 22.8 (17:30) 9.3 (00:00) 16 10 (12:00) 6.11 (13:20) 0 0 0 0 0
11-08-2019 -- (--) -- (--) -- -- (--) -- (--) -- 1.6 0 0 --
10-08-2019 26 (17:30) 14.3 (00:00) 20.2 9.72 (14:20) 6.94 (20:30) 0 0 0 0 0
09-08-2019 24.9 (16:40) 16.4 (00:00) 20.6 14.44 (16:30) 10 (16:00) 1.6 0 1.4 0.2 0
08-08-2019 28.9 (19:00) 17.4 (00:00) 23.1 13.06 (17:00) 9.17 (17:10) 0 0 0 0 0
07-08-2019 25.4 (14:10) 16.6 (00:00) 21 11.67 (17:00) 8.33 (17:00) 0.8 0 0 0 0.8
06-08-2019 30.7 (16:10) 15.6 (00:00) 23.2 10 (16:50) 7.5 (18:40) 0 0 0 0 0
05-08-2019 32.4 (17:40) 14.9 (00:00) 23.7 9.72 (19:50) 6.11 (19:40) 0 0 0 0 0
04-08-2019 32.2 (17:30) 15.8 (00:00) 24 11.94 (17:00) 6.67 (19:10) 0 0 0 0 0
03-08-2019 33.9 (17:40) 16 (00:00) 25 14.72 (17:40) 6.67 (19:50) 0 0 0 0 0
02-08-2019 31.8 (18:40) 14.2 (00:00) 23 7.78 (00:20) 5.28 (00:20) 0 0 0 0 0
01-08-2019 30.8 (18:20) 13.1 (00:00) 21.9 9.72 (16:20) 5.56 (16:20) 0 0 0 0 0
31-07-2019 26.1 (17:50) 11.6 (00:00) 18.9 8.89 (14:20) 5 (11:40) 0 0 0 0 0
30-07-2019 24.8 (19:00) 9 (00:00) 16.9 8.06 (10:10) 5 (10:10) 0 0 0 0 0
29-07-2019 24.6 (17:40) 12.3 (00:00) 18.5 13.89 (18:30) 9.17 (14:30) 0 0 0 0 0
28-07-2019 27.8 (18:40) 10.1 (00:00) 18.9 11.67 (17:50) 5.28 (21:00) 0 0 0 0 0
27-07-2019 23.6 (15:20) 13.5 (00:00) 18.6 10.83 (15:50) 6.94 (15:30) 1.2 0 0 0 1.2
26-07-2019 26.5 (18:10) 13.3 (00:00) 19.9 12.78 (20:20) 8.89 (20:20) 0 0 0 0 0
25-07-2019 31 (17:20) 17.2 (00:00) 24.1 12.22 (17:20) 8.61 (18:00) 0 0 0 0 0
24-07-2019 34.2 (17:20) 16.9 (00:00) 25.6 12.78 (17:30) 7.22 (17:30) 0 0 0 0 0
23-07-2019 33.4 (16:20) 18.4 (00:00) 25.9 12.5 (17:30) 8.33 (17:40) 2.4 0.6 0 0.4 1.4
22-07-2019 36.6 (18:10) 18.2 (00:00) 27.4 20 (19:10) 12.5 (19:10) 11.8 0 0 0 11.8
21-07-2019 34.4 (19:10) 15.7 (00:00) 25.1 7.22 (18:10) 4.17 (10:10) 0 0 0 0 0
20-07-2019 32.8 (17:20) 15.4 (07:10) 24.1 13.89 (16:30) 7.22 (19:00) 0 0 0 0 0
19-07-2019 33.7 (17:40) 14.8 (00:00) 24.3 11.39 (16:40) 6.94 (17:10) 0 0 0 0 0
18-07-2019 31.3 (18:30) 14.3 (00:00) 22.8 9.17 (16:20) 5 (01:40) 0 0 0 0 0

Gráficas

Temp. máximas Temp. mínimas Temp. medias Precipitaciones Rachas de viento máximas Velocidades máximas media en intervalos de 10 minutos

Datos horarios

Fecha y hora oficial Temperatura (ºC) Velocidad del viento (km/h) Dirección del viento Racha (km/h) Dirección de racha Precipitación (mm) Presión (hPa) Tendencia (hPa) Humedad (%)
2019-08-16 23:00:00 -- -- -- -- -- -- -- -- --
2019-08-16 22:00:00 -- -- -- -- -- -- -- -- --
2019-08-16 21:00:00 -- -- -- -- -- -- -- -- --
2019-08-16 20:00:00 -- -- -- -- -- -- -- -- --
2019-08-16 19:00:00 -- -- -- -- -- -- -- -- --
2019-08-16 18:00:00 -- -- -- -- -- -- -- -- --
2019-08-16 17:00:00 -- -- -- -- -- -- -- -- --
2019-08-16 16:00:00 -- -- -- -- -- -- -- -- --
2019-08-16 15:00:00 -- -- -- -- -- -- -- -- --
2019-08-16 14:00:00 -- -- -- -- -- -- -- -- --
2019-08-16 13:00:00 -- -- -- -- -- -- -- -- --
2019-08-16 12:00:00 -- -- -- -- -- -- -- -- --
2019-08-16 11:00:00 -- -- -- -- -- -- -- -- --
2019-08-16 10:00:00 -- -- -- -- -- -- -- -- --
2019-08-16 09:00:00 -- -- -- -- -- -- -- -- --
2019-08-16 08:00:00 -- -- -- -- -- -- -- -- --
2019-08-16 07:00:00 -- -- -- -- -- -- -- -- --
2019-08-16 06:00:00 -- -- -- -- -- -- -- -- --
2019-08-16 05:00:00 -- -- -- -- -- -- -- -- --
2019-08-16 04:00:00 -- -- -- -- -- -- -- -- --
2019-08-16 03:00:00 -- -- -- -- -- -- -- -- --
2019-08-16 02:00:00 20.1 5 Norte 18 Nordeste 0 -- -- 61
2019-08-16 01:00:00 21.6 11 Norte 18 Nordeste 0 -- -- 56
2019-08-16 00:00:00 23.4 11 Norte 21 Noroeste 0 -- -- 51
2019-08-15 23:00:00 24.9 12 Noroeste 20 Noroeste 0 -- -- 47
2019-08-15 22:00:00 -- -- -- -- -- -- -- -- --
2019-08-15 21:00:00 -- -- -- -- -- -- -- -- --
2019-08-15 20:00:00 -- -- -- -- -- -- -- -- --
2019-08-15 19:00:00 -- -- -- -- -- -- -- -- --
2019-08-15 18:00:00 -- -- -- -- -- -- -- -- --
2019-08-15 17:00:00 -- -- -- -- -- -- -- -- --
2019-08-15 16:00:00 -- -- -- -- -- -- -- -- --
2019-08-15 15:00:00 -- -- -- -- -- -- -- -- --
2019-08-15 14:00:00 -- -- -- -- -- -- -- -- --
2019-08-15 13:00:00 -- -- -- -- -- -- -- -- --
2019-08-15 12:00:00 -- -- -- -- -- -- -- -- --
2019-08-15 11:00:00 -- -- -- -- -- -- -- -- --
2019-08-15 10:00:00 -- -- -- -- -- -- -- -- --
2019-08-15 09:00:00 -- -- -- -- -- -- -- -- --
2019-08-15 08:00:00 -- -- -- -- -- -- -- -- --
2019-08-15 07:00:00 14.6 -- -- -- -- -- -- -- --
2019-08-15 06:00:00 16 4 Norte 14 Oeste 0 -- -- 79
2019-08-15 05:00:00 16.4 10 Noroeste 14 Noroeste 0 -- -- 78
2019-08-15 04:00:00 18.1 4 Noroeste 6 Noroeste 0 -- -- 72
2019-08-15 03:00:00 18 0 Calma 7 Sudeste 0 -- -- 71
2019-08-15 02:00:00 -- -- -- -- -- -- -- -- --
2019-08-15 01:00:00 19.8 2 Norte 10 Noroeste 0 -- -- 65
2019-08-15 00:00:00 21.5 4 Noroeste 8 Norte 0 -- -- 62
2019-08-14 23:00:00 24.3 8 Noroeste 15 Norte 0 -- -- 54
2019-08-14 22:00:00 26.7 13 Norte 18 Norte 0 -- -- 46
2019-08-14 21:00:00 28.7 6 Norte 23 Nordeste 0 -- -- 40
2019-08-14 20:00:00 29.4 13 Norte 23 Oeste 0 -- -- 36
2019-08-14 19:00:00 31.3 14 Oeste 23 Oeste 0 -- -- 33
2019-08-14 18:00:00 32 9 Sudoeste 24 Oeste 0 -- -- 31
2019-08-14 17:00:00 31.3 7 Oeste 26 Oeste 0 -- -- 30
2019-08-14 16:00:00 30.6 9 Oeste 24 Oeste 0 -- -- 31
2019-08-14 15:00:00 29.4 12 Oeste 27 Oeste 0 -- -- 31
2019-08-14 14:00:00 27.2 11 Sudeste 23 Sudeste 0 -- -- 33
2019-08-14 13:00:00 25.4 10 Nordeste 23 Este 0 -- -- 36
2019-08-14 12:00:00 23.2 8 Este 14 Sudeste 0 -- -- 41
2019-08-14 11:00:00 21.2 6 Nordeste 11 Nordeste 0 -- -- 45
2019-08-14 10:00:00 18.3 4 Noroeste 10 Norte 0 -- -- 52
2019-08-14 09:00:00 15.8 8 Noroeste 13 Oeste 0 -- -- 57
2019-08-14 08:00:00 12.2 9 Oeste 14 Oeste 0 -- -- 69
2019-08-14 07:00:00 12.1 10 Oeste 14 Noroeste 0 -- -- 68
2019-08-14 06:00:00 12.4 12 Noroeste 14 Oeste 0 -- -- 66
2019-08-14 05:00:00 12.5 8 Oeste 12 Oeste 0 -- -- 64
2019-08-14 04:00:00 13.4 4 Noroeste 10 Noroeste 0 -- -- 60
2019-08-14 03:00:00 14.1 6 Oeste 14 Noroeste 0 -- -- 57
2019-08-14 02:00:00 15.6 12 Oeste 15 Oeste 0 -- -- 51
2019-08-14 01:00:00 15.5 10 Oeste 13 Noroeste 0 -- -- 52
2019-08-14 00:00:00 17.5 7 Noroeste 13 Noroeste 0 -- -- 44
2019-08-13 23:00:00 19.3 -- -- -- -- 0 -- -- 39
2019-08-13 22:00:00 20.6 9 Sudoeste 12 Sudoeste 0 -- -- 34
2019-08-13 21:00:00 25.6 9 Oeste 18 Oeste 0 -- -- 26
2019-08-13 20:00:00 26.9 8 Sudoeste 17 Sudoeste 0 -- -- 24
2019-08-13 19:00:00 26.9 8 Sudoeste 21 Sudeste 0 -- -- 24
2019-08-13 18:00:00 -- -- -- -- -- -- -- -- --
2019-08-13 17:00:00 25.8 8 Norte 21 Nordeste 0 -- -- 27
2019-08-13 16:00:00 24 8 Este 20 Nordeste 0 -- -- 30
2019-08-13 15:00:00 23.2 4 Norte 15 Este 0 -- -- 33
2019-08-13 14:00:00 22.1 8 Nordeste 19 Nordeste 0 -- -- 38
2019-08-13 13:00:00 20.3 5 Nordeste 20 Este 0 -- -- 43
2019-08-13 12:00:00 18.2 9 Este 20 Nordeste 0 -- -- 49
2019-08-13 11:00:00 16.3 13 Nordeste 20 Nordeste 0 -- -- 57
2019-08-13 10:00:00 14.2 10 Nordeste 21 Nordeste 0 -- -- 65
2019-08-13 09:00:00 12.2 8 Norte 14 Norte 0 -- -- 74
2019-08-13 08:00:00 9.7 8 Noroeste 11 Noroeste 0 -- -- 83
2019-08-13 07:00:00 9 5 Norte 7 Noroeste 0 -- -- 84
2019-08-13 06:00:00 9.6 5 Noroeste 9 Nordeste 0 -- -- 81
2019-08-13 05:00:00 10.9 5 Norte 9 Nordeste 0 -- -- 77
2019-08-13 04:00:00 11.6 4 Norte 9 Nordeste 0 -- -- 74
2019-08-13 03:00:00 12.5 8 Este 17 Este 0 -- -- 70
2019-08-13 02:00:00 13.5 13 Este 24 Este 0 -- -- 64
2019-08-13 01:00:00 14.7 16 Este 32 Este 0 -- -- 59
2019-08-13 00:00:00 15.9 13 Nordeste 27 Este 0 -- -- 56
2019-08-12 23:00:00 17.5 18 Nordeste 27 Nordeste 0 -- -- 49
2019-08-12 22:00:00 17.8 7 Noroeste 9 Oeste 0 -- -- 44
2019-08-12 21:00:00 20.5 5 Nordeste 15 Nordeste 0 -- -- 32
2019-08-12 20:00:00 21.3 10 Nordeste 18 Nordeste 0 -- -- 31
2019-08-12 19:00:00 21.6 7 Nordeste 18 Nordeste 0 -- -- 31
2019-08-12 18:00:00 22 13 Nordeste 28 Nordeste 0 -- -- 31
2019-08-12 17:00:00 22.7 9 Este 26 Este 0 -- -- 28
2019-08-12 16:00:00 21.6 12 Nordeste 27 Nordeste 0 -- -- 28
2019-08-12 15:00:00 21 14 Nordeste 31 Nordeste 0 -- -- 30
2019-08-12 14:00:00 20.6 18 Nordeste 35 Este 0 -- -- 36
2019-08-12 13:00:00 19.1 15 Este 27 Nordeste 0 -- -- 37
2019-08-12 12:00:00 18 15 Nordeste 36 Nordeste 0 -- -- 45
2019-08-12 11:00:00 16.6 15 Norte 29 Norte 0 -- -- 47
2019-08-12 10:00:00 14.6 20 Norte 28 Norte 0 -- -- 55
2019-08-12 09:00:00 12.4 14 Noroeste 21 Noroeste 0 -- -- 64
2019-08-12 08:00:00 10.2 11 Noroeste 16 Noroeste 0 -- -- 73
2019-08-12 07:00:00 9.8 8 Noroeste 14 Noroeste 0 -- -- 75
2019-08-12 06:00:00 9.7 9 Noroeste 14 Noroeste 0 -- -- 77
2019-08-12 05:00:00 9.9 12 Noroeste 16 Noroeste 0 -- -- 77
2019-08-12 04:00:00 9.4 10 Oeste 12 Noroeste 0 -- -- 81
2019-08-12 03:00:00 10.3 8 Oeste 10 Oeste 0 -- -- 77
2019-08-12 02:00:00 10.9 2 Oeste 10 Oeste 0 -- -- 74
2019-08-12 01:00:00 11.7 8 Noroeste 11 Noroeste 0 -- -- 72
2019-08-12 00:00:00 13.3 4 Noroeste 13 Noroeste 0 -- -- 64
2019-08-11 23:00:00 14.8 9 Noroeste 19 Noroeste 0 -- -- 57
2019-08-11 22:00:00 -- -- -- -- -- -- -- -- --
2019-08-11 21:00:00 18.7 27 Noroeste 40 Noroeste 0 -- -- 45
2019-08-11 20:00:00 21.7 24 Noroeste 38 Oeste 0 -- -- 36
2019-08-11 19:00:00 23.2 27 Oeste 40 Oeste 0 -- -- 28
2019-08-11 18:00:00 23.7 28 Oeste 42 Oeste 0 -- -- 28
2019-08-11 17:00:00 23.6 31 Oeste 48 Sudoeste 0 -- -- 30
2019-08-11 16:00:00 23.2 19 Oeste 35 Oeste 0 -- -- 25
2019-08-11 15:00:00 22.8 18 Oeste 40 Sudoeste 0 -- -- 30
2019-08-11 14:00:00 21.1 14 Sudoeste 28 Oeste 0 -- -- 41
2019-08-11 13:00:00 19.8 18 Oeste 27 Oeste 0 -- -- 52
2019-08-11 12:00:00 17.8 13 Oeste 21 Oeste 0 -- -- 70
2019-08-11 11:00:00 15.7 11 Sudoeste 16 Oeste 0 -- -- 79
2019-08-11 10:00:00 15.2 3 Sur 6 Nordeste 0 -- -- 85
2019-08-11 09:00:00 14.2 0 Calma 4 Norte 0 -- -- 88
2019-08-11 08:00:00 12.9 5 Oeste 13 Noroeste 0 -- -- 93
2019-08-11 07:00:00 13 9 Oeste 13 Oeste 0 -- -- 92
2019-08-11 06:00:00 13.8 4 Sudeste 6 Este 0 -- -- 89
2019-08-11 05:00:00 14.3 4 Sudeste 14 Sudeste 0.2 -- -- 90
2019-08-11 04:00:00 14.7 0 Calma 12 Noroeste 0.6 -- -- 84
2019-08-11 03:00:00 15.3 11 Noroeste 23 Oeste 0.8 -- -- 81
2019-08-11 02:00:00 18 4 Noroeste 13 Noroeste 0 -- -- 56
2019-08-11 01:00:00 18.4 5 Norte 10 Noroeste 0 -- -- 55
2019-08-11 00:00:00 18.9 10 Noroeste 15 Noroeste 0 -- -- 52
2019-08-10 23:00:00 19.4 8 Noroeste 26 Noroeste 0 -- -- 49
2019-08-10 22:00:00 20.2 15 Noroeste 22 Oeste 0 -- -- 43
2019-08-10 21:00:00 21.8 21 Oeste 32 Oeste 0 -- -- 39
2019-08-10 20:00:00 24.1 24 Oeste 34 Oeste 0 -- -- 32
2019-08-10 19:00:00 25.7 17 Sudoeste 31 Oeste 0 -- -- 26
2019-08-10 18:00:00 25.9 17 Sudoeste 32 Sudoeste 0 -- -- 28
2019-08-10 17:00:00 25.8 17 Sudoeste 31 Sur 0 -- -- 30
2019-08-10 16:00:00 25 14 Sur 32 Sur 0 -- -- 32
2019-08-10 15:00:00 24.5 10 Sudoeste 35 Oeste 0 -- -- 31
2019-08-10 14:00:00 23.1 9 Oeste 28 Oeste 0 -- -- 35
2019-08-10 13:00:00 21.9 9 Oeste 25 Oeste 0 -- -- 38
2019-08-10 12:00:00 20.8 5 Sudoeste 15 Sudoeste 0 -- -- 41
2019-08-10 11:00:00 18.8 5 Sudoeste 19 Oeste 0 -- -- 49
2019-08-10 10:00:00 17.2 7 Oeste 18 Oeste 0 -- -- 60
2019-08-10 09:00:00 14.9 5 Oeste 15 Oeste 0 -- -- 75
2019-08-10 08:00:00 14.3 7 Noroeste 18 Sudoeste 0 -- -- 79
2019-08-10 07:00:00 14.7 7 Oeste 13 Sudoeste 0 -- -- 79
2019-08-10 06:00:00 15.1 3 Sudoeste 9 Oeste 0 -- -- 76
2019-08-10 05:00:00 15.4 3 Oeste 12 Oeste 0 -- -- 74
2019-08-10 04:00:00 15.7 7 Oeste 15 Oeste 0 -- -- 73
2019-08-10 03:00:00 16 10 Oeste 18 Oeste 0 -- -- 71
2019-08-10 02:00:00 16.2 5 Noroeste 11 Noroeste 0 -- -- 70
2019-08-10 01:00:00 16.3 8 Noroeste 18 Oeste 0 -- -- 69
2019-08-10 00:00:00 16.5 14 Oeste 21 Oeste 0 -- -- 65
2019-08-09 23:00:00 17.6 7 Noroeste 23 Noroeste 0 -- -- 63
2019-08-09 22:00:00 18.9 12 Noroeste 30 Oeste 0 -- -- 57
2019-08-09 21:00:00 21.2 24 Oeste 34 Oeste 0 -- -- 51
2019-08-09 20:00:00 22.6 22 Oeste 34 Oeste 0 -- -- 45
2019-08-09 19:00:00 23.3 23 Oeste 47 Oeste 0 -- -- 41
2019-08-09 18:00:00 24.5 27 Oeste 48 Oeste 0 -- -- 41
2019-08-09 17:00:00 24.7 28 Oeste 52 Sudoeste 0 -- -- 39
2019-08-09 16:00:00 24.1 36 Oeste 50 Oeste 0 -- -- 39
2019-08-09 15:00:00 23.7 26 Oeste 50 Oeste 0 -- -- 45
2019-08-09 14:00:00 22.8 32 Oeste 48 Oeste 0 -- -- 41
2019-08-09 13:00:00 21.6 26 Oeste 42 Oeste 0.2 -- -- 51
2019-08-09 12:00:00 19.5 32 Oeste 42 Oeste 0 -- -- 60
2019-08-09 11:00:00 17.7 26 Oeste 39 Oeste 0 -- -- 74
2019-08-09 10:00:00 17 17 Oeste 34 Oeste 0 -- -- 86
2019-08-09 09:00:00 16.5 22 Oeste 44 Oeste 0 -- -- 89
2019-08-09 08:00:00 17.1 27 Oeste 40 Oeste 1.2 -- -- 90
2019-08-09 07:00:00 19.3 19 Sudoeste 39 Sudoeste 0.2 -- -- 88
2019-08-09 06:00:00 21.1 26 Sudoeste 41 Sudoeste 0 -- -- 74
2019-08-09 05:00:00 21.4 26 Sudoeste 37 Sudoeste 0 -- -- 72
2019-08-09 04:00:00 21.5 22 Sudoeste 38 Sudoeste 0 -- -- 72
2019-08-09 03:00:00 22 21 Sudoeste 35 Sudoeste 0 -- -- 68
2019-08-09 02:00:00 22.3 11 Sudoeste 22 Sudoeste 0 -- -- 65
2019-08-09 01:00:00 22 9 Sudoeste 18 Sudoeste 0 -- -- 66
2019-08-09 00:00:00 22.8 13 Oeste 21 Sudoeste 0 -- -- 61
2019-08-08 23:00:00 23.3 15 Sudoeste 22 Oeste 0 -- -- 58
2019-08-08 22:00:00 24 14 Sudoeste 31 Oeste 0 -- -- 56
2019-08-08 21:00:00 25.6 21 Oeste 41 Oeste 0 -- -- 52
2019-08-08 20:00:00 27.3 24 Oeste 38 Sudoeste 0 -- -- 51
2019-08-08 19:00:00 28.9 26 Sudoeste 41 Sudoeste 0 -- -- 47
2019-08-08 18:00:00 28 29 Oeste 46 Sudoeste 0 -- -- 50
2019-08-08 17:00:00 27.9 30 Sudoeste 47 Sudoeste 0 -- -- 48
2019-08-08 16:00:00 27.7 28 Sudoeste 39 Sudoeste 0 -- -- 50
2019-08-08 15:00:00 26.1 22 Sudoeste 39 Sudoeste 0 -- -- 59
2019-08-08 14:00:00 25.7 21 Sudoeste 36 Sudoeste 0 -- -- 61
2019-08-08 13:00:00 23.8 25 Sudoeste 36 Sudoeste 0 -- -- 69
2019-08-08 12:00:00 22.4 17 Sudoeste 28 Sudoeste 0 -- -- 77
2019-08-08 11:00:00 20.2 14 Sudoeste 26 Sudoeste 0 -- -- 84
2019-08-08 10:00:00 18.5 14 Sudoeste 24 Sur 0 -- -- 91
2019-08-08 09:00:00 17.7 13 Sudoeste 24 Sudoeste 0 -- -- 91
2019-08-08 08:00:00 17.4 2 Sur 20 Sudoeste 0 -- -- 88
2019-08-08 07:00:00 17.7 19 Sudoeste 26 Sudoeste 0 -- -- 86
2019-08-08 06:00:00 18.4 8 Sudoeste 14 Sudoeste 0 -- -- 83
2019-08-08 05:00:00 18.7 5 Sudoeste 15 Sudoeste 0 -- -- 83
2019-08-08 04:00:00 18.7 10 Sudoeste 20 Oeste 0 -- -- 85
2019-08-08 03:00:00 18.8 11 Sudoeste 21 Oeste 0 -- -- 84
2019-08-08 02:00:00 18.8 4 Sudoeste 8 Sudoeste 0 -- -- 85
2019-08-08 01:00:00 18.6 5 Oeste 12 Sudoeste 0 -- -- 87
2019-08-08 00:00:00 18.7 6 Sudoeste 8 Oeste 0 -- -- 86
2019-08-07 23:00:00 18.8 2 Sudoeste 8 Oeste 0 -- -- 86
2019-08-07 22:00:00 19 2 Sudoeste 17 Oeste 0 -- -- 85
2019-08-07 21:00:00 19.3 10 Noroeste 20 Oeste 0 -- -- 85
2019-08-07 20:00:00 19.5 7 Noroeste 18 Oeste 0.4 -- -- 87
2019-08-07 19:00:00 18.4 9 Noroeste 32 Oeste 0.4 -- -- 88
2019-08-07 18:00:00 20.1 21 Oeste 36 Sudoeste 0 -- -- 76
2019-08-07 17:00:00 23.3 30 Sudoeste 42 Sudoeste 0 -- -- 52
2019-08-07 16:00:00 24 22 Oeste 32 Oeste 0 -- -- 49
2019-08-07 15:00:00 23.9 15 Oeste 36 Sudoeste 0 -- -- 51
2019-08-07 14:00:00 25 15 Sudoeste 29 Sudoeste 0 -- -- 46
2019-08-07 13:00:00 24.2 14 Oeste 28 Oeste 0 -- -- 48
2019-08-07 12:00:00 23.6 10 Sudoeste 19 Sudoeste 0 -- -- 51
2019-08-07 11:00:00 21.6 5 Este 12 Este 0 -- -- 62
2019-08-07 10:00:00 19.9 4 Este 8 Este 0 -- -- 68
2019-08-07 09:00:00 19.6 2 Noroeste 5 Oeste 0 -- -- 67
2019-08-07 08:00:00 17.3 0 Calma 4 Oeste 0 -- -- 77
2019-08-07 07:00:00 16.8 0 Calma 6 Norte 0 -- -- 77
2019-08-07 06:00:00 16.6 2 Noroeste 9 Noroeste 0 -- -- 76
2019-08-07 05:00:00 17.6 0 Calma 8 Sur 0 -- -- 71
2019-08-07 04:00:00 19.1 5 Noroeste 8 Noroeste 0 -- -- 68
2019-08-07 03:00:00 19.8 5 Sudeste 9 Sudeste 0 -- -- 65
2019-08-07 02:00:00 20.7 0 Calma 14 Este 0 -- -- 64
2019-08-07 01:00:00 21.9 2 Nordeste 9 Oeste 0 -- -- 57
2019-08-07 00:00:00 22.5 8 Sudoeste 13 Noroeste 0 -- -- 55
2019-08-06 23:00:00 23.3 7 Oeste 14 Oeste 0 -- -- 48
2019-08-06 22:00:00 24.2 10 Oeste 15 Noroeste 0 -- -- 45
2019-08-06 21:00:00 25 10 Noroeste 33 Noroeste 0 -- -- 42
2019-08-06 20:00:00 25.8 22 Noroeste 33 Oeste 0 -- -- 44
2019-08-06 19:00:00 27.6 22 Oeste 34 Oeste 0 -- -- 37
2019-08-06 18:00:00 29.3 25 Oeste 34 Oeste 0 -- -- 31
2019-08-06 17:00:00 30.2 24 Oeste 36 Sudoeste 0 -- -- 29
2019-08-06 16:00:00 30.3 22 Oeste 32 Oeste 0 -- -- 30
2019-08-06 15:00:00 29.8 15 Oeste 29 Oeste 0 -- -- 31
2019-08-06 14:00:00 28.7 12 Oeste 22 Oeste 0 -- -- 36
2019-08-06 13:00:00 27.5 10 Oeste 20 Sur 0 -- -- 40
2019-08-06 12:00:00 25.1 5 Este 12 Este 0 -- -- 49
2019-08-06 11:00:00 22.7 2 Nordeste 9 Este 0 -- -- 54
2019-08-06 10:00:00 20.7 3 Nordeste 8 Nordeste 0 -- -- 59
2019-08-06 09:00:00 18.3 2 Noroeste 5 Noroeste 0 -- -- 73
2019-08-06 08:00:00 16.1 3 Oeste 7 Noroeste 0 -- -- 81
2019-08-06 07:00:00 15.7 3 Noroeste 7 Oeste 0 -- -- 79
2019-08-06 06:00:00 16.3 0 Calma 6 Sudeste 0 -- -- 75
2019-08-06 05:00:00 17.8 5 Noroeste 15 Oeste 0 -- -- 70
2019-08-06 04:00:00 18.3 8 Noroeste 11 Oeste 0 -- -- 70
2019-08-06 03:00:00 19.1 3 Sur 6 Sur 0 -- -- 65
2019-08-06 02:00:00 20 3 Sur 10 Sudoeste 0 -- -- 61
2019-08-06 01:00:00 21.6 7 Oeste 10 Oeste 0 -- -- 56
2019-08-06 00:00:00 23.7 10 Noroeste 21 Noroeste 0 -- -- 48
2019-08-05 23:00:00 25.1 8 Noroeste 22 Oeste 0 -- -- 41
2019-08-05 22:00:00 26.7 15 Oeste 26 Oeste 0 -- -- 36
2019-08-05 21:00:00 29.7 18 Oeste 30 Oeste 0 -- -- 31
2019-08-05 20:00:00 31.2 19 Oeste 35 Oeste 0 -- -- 29
2019-08-05 19:00:00 31.9 14 Oeste 30 Oeste 0 -- -- 28
2019-08-05 18:00:00 32.1 16 Oeste 32 Oeste 0 -- -- 27
2019-08-05 17:00:00 31.9 17 Oeste 26 Sudoeste 0 -- -- 28
2019-08-05 16:00:00 31.2 13 Sudoeste 26 Sur 0 -- -- 32
2019-08-05 15:00:00 29.9 6 Nordeste 22 Este 0 -- -- 34
2019-08-05 14:00:00 28.3 8 Este 18 Este 0 -- -- 42
2019-08-05 13:00:00 26.6 5 Nordeste 19 Nordeste 0 -- -- 45
2019-08-05 12:00:00 24.7 4 Nordeste 13 Nordeste 0 -- -- 52
2019-08-05 11:00:00 22.3 7 Nordeste 17 Nordeste 0 -- -- 60
2019-08-05 10:00:00 20.3 10 Nordeste 18 Nordeste 0 -- -- 67
2019-08-05 09:00:00 18.4 6 Norte 10 Norte 0 -- -- 74
2019-08-05 08:00:00 15.6 8 Noroeste 12 Noroeste 0 -- -- 82
2019-08-05 07:00:00 15 10 Noroeste 11 Noroeste 0 -- -- 82
2019-08-05 06:00:00 15.8 0 Calma 4 Noroeste 0 -- -- 78
2019-08-05 05:00:00 16.2 0 Calma 5 Oeste 0 -- -- 72
2019-08-05 04:00:00 17.5 5 Noroeste 13 Oeste 0 -- -- 67
2019-08-05 03:00:00 18 3 Oeste 10 Este 0 -- -- 68
2019-08-05 02:00:00 19.2 5 Noroeste 9 Oeste 0 -- -- 62
2019-08-05 01:00:00 20.5 3 Noroeste 8 Noroeste 0 -- -- 60
2019-08-05 00:00:00 22.5 6 Noroeste 17 Noroeste 0 -- -- 53
2019-08-04 23:00:00 23.7 9 Norte 18 Oeste 0 -- -- 48
2019-08-04 22:00:00 25.9 13 Noroeste 24 Oeste 0 -- -- 42
2019-08-04 21:00:00 29.4 14 Oeste 32 Oeste 0 -- -- 34
2019-08-04 20:00:00 30.7 18 Oeste 36 Oeste 0 -- -- 29
2019-08-04 19:00:00 31.6 23 Oeste 35 Oeste 0 -- -- 26
2019-08-04 18:00:00 32.1 20 Oeste 37 Noroeste 0 -- -- 27
2019-08-04 17:00:00 31.9 23 Oeste 43 Oeste 0 -- -- 24
2019-08-04 16:00:00 31.5 16 Oeste 39 Sudoeste 0 -- -- 27
2019-08-04 15:00:00 31 18 Sudoeste 40 Sudoeste 0 -- -- 30
2019-08-04 14:00:00 29.8 15 Sudoeste 28 Sudoeste 0 -- -- 34
2019-08-04 13:00:00 28.6 15 Sudoeste 28 Sudoeste 0 -- -- 38
2019-08-04 12:00:00 26.1 10 Este 14 Este 0 -- -- 50
2019-08-04 11:00:00 23.8 5 Sudeste 12 Sudeste 0 -- -- 56
2019-08-04 10:00:00 21.8 5 Este 10 Este 0 -- -- 62
2019-08-04 09:00:00 19.3 4 Este 6 Nordeste 0 -- -- 68
2019-08-04 08:00:00 16.4 0 Calma 8 Oeste 0 -- -- 77
2019-08-04 07:00:00 16.2 2 Oeste 10 Oeste 0 -- -- 75
2019-08-04 06:00:00 16.8 4 Oeste 8 Noroeste 0 -- -- 73
2019-08-04 05:00:00 17.3 3 Oeste 6 Este 0 -- -- 71
2019-08-04 04:00:00 18.7 6 Oeste 14 Oeste 0 -- -- 66
2019-08-04 03:00:00 19.6 13 Oeste 14 Oeste 0 -- -- 62
2019-08-04 02:00:00 19.6 10 Noroeste 12 Oeste 0 -- -- 58
2019-08-04 01:00:00 20.5 0 Calma 10 Nordeste 0 -- -- 54
2019-08-04 00:00:00 22.2 6 Oeste 16 Noroeste 0 -- -- 47
2019-08-03 23:00:00 24.4 10 Noroeste 16 Noroeste 0 -- -- 39
2019-08-03 22:00:00 26.6 11 Noroeste 24 Oeste 0 -- -- 33
2019-08-03 21:00:00 30.7 19 Oeste 32 Oeste 0 -- -- 26
2019-08-03 20:00:00 32.2 22 Oeste 33 Sudoeste 0 -- -- 25
2019-08-03 19:00:00 33.3 20 Oeste 35 Oeste 0 -- -- 25
2019-08-03 18:00:00 33.9 20 Oeste 53 Oeste 0 -- -- 24
2019-08-03 17:00:00 33.7 15 Oeste 31 Oeste 0 -- -- 25
2019-08-03 16:00:00 33.5 12 Sudoeste 31 Sur 0 -- -- 25
2019-08-03 15:00:00 32.6 7 Sur 19 Este 0 -- -- 26
2019-08-03 14:00:00 31.2 7 Sudeste 16 Este 0 -- -- 31
2019-08-03 13:00:00 29 6 Norte 15 Este 0 -- -- 36
2019-08-03 12:00:00 26.8 6 Nordeste 14 Nordeste 0 -- -- 41
2019-08-03 11:00:00 24.6 5 Nordeste 16 Nordeste 0 -- -- 43
2019-08-03 10:00:00 22.7 9 Nordeste 14 Nordeste 0 -- -- 46
2019-08-03 09:00:00 20.3 8 Noroeste 12 Noroeste 0 -- -- 58
2019-08-03 08:00:00 16.9 10 Noroeste 13 Oeste 0 -- -- 71
2019-08-03 07:00:00 16.2 8 Noroeste 11 Noroeste 0 -- -- 73
2019-08-03 06:00:00 17.1 10 Noroeste 12 Noroeste 0 -- -- 69
2019-08-03 05:00:00 17.8 10 Noroeste 13 Oeste 0 -- -- 68
2019-08-03 04:00:00 18.4 12 Noroeste 15 Oeste 0 -- -- 66
2019-08-03 03:00:00 18.9 12 Oeste 14 Noroeste 0 -- -- 63
2019-08-03 02:00:00 20.4 7 Noroeste 14 Norte 0 -- -- 54
2019-08-03 01:00:00 20.5 7 Noroeste 18 Oeste 0 -- -- 53
2019-08-03 00:00:00 22 14 Oeste 18 Oeste 0 -- -- 45
2019-08-02 23:00:00 23.6 6 Oeste 13 Oeste 0 -- -- 38
2019-08-02 22:00:00 26.6 0 Calma 12 Sudeste 0 -- -- 35
2019-08-02 21:00:00 30.5 8 Este 14 Este 0 -- -- 27
2019-08-02 20:00:00 31.6 7 Este 17 Este 0 -- -- 24
2019-08-02 19:00:00 31.7 10 Este 20 Este 0 -- -- 25
2019-08-02 18:00:00 31.6 10 Este 27 Sudeste 0 -- -- 26
2019-08-02 17:00:00 31.4 7 Nordeste 22 Este 0 -- -- 27
2019-08-02 16:00:00 30.7 11 Nordeste 21 Nordeste 0 -- -- 29
2019-08-02 15:00:00 29.1 8 Nordeste 15 Sudeste 0 -- -- 33
2019-08-02 14:00:00 27.2 5 Norte 19 Nordeste 0 -- -- 40
2019-08-02 13:00:00 24.9 10 Nordeste 21 Nordeste 0 -- -- 45
2019-08-02 12:00:00 22.7 12 Nordeste 23 Este 0 -- -- 51
2019-08-02 11:00:00 20.3 13 Nordeste 22 Nordeste 0 -- -- 60
2019-08-02 10:00:00 18.5 14 Nordeste 22 Nordeste 0 -- -- 65
2019-08-02 09:00:00 17 13 Nordeste 19 Nordeste 0 -- -- 72
2019-08-02 08:00:00 14.8 6 Norte 11 Nordeste 0 -- -- 80
2019-08-02 07:00:00 14.2 4 Norte 10 Norte 0 -- -- 81
2019-08-02 06:00:00 14.5 5 Noroeste 9 Norte 0 -- -- 81
2019-08-02 05:00:00 15.2 5 Norte 11 Nordeste 0 -- -- 79
2019-08-02 04:00:00 15.6 0 Calma 17 Nordeste 0 -- -- 77
2019-08-02 03:00:00 16.4 8 Nordeste 20 Este 0 -- -- 75
2019-08-02 02:00:00 17.7 13 Nordeste 25 Este 0 -- -- 71
2019-08-02 01:00:00 18.8 16 Nordeste 28 Nordeste 0 -- -- 67
2019-08-02 00:00:00 21.9 15 Norte 24 Norte 0 -- -- 47
2019-08-01 23:00:00 21.4 10 Noroeste 14 Noroeste 0 -- -- 38
2019-08-01 22:00:00 23.9 13 Oeste 17 Oeste 0 -- -- 31
2019-08-01 21:00:00 28.6 14 Oeste 27 Oeste 0 -- -- 25
2019-08-01 20:00:00 30 18 Oeste 29 Oeste 0 -- -- 22
2019-08-01 19:00:00 30.6 14 Oeste 28 Oeste 0 -- -- 23
2019-08-01 18:00:00 30.5 14 Sur 29 Oeste 0 -- -- 21
2019-08-01 17:00:00 30.4 15 Sudoeste 35 Oeste 0 -- -- 23
2019-08-01 16:00:00 30 13 Oeste 30 Sudoeste 0 -- -- 25
2019-08-01 15:00:00 28.3 5 Nordeste 22 Este 0 -- -- 33
2019-08-01 14:00:00 27.1 10 Este 27 Oeste 0 -- -- 39
2019-08-01 13:00:00 25.4 5 Nordeste 15 Sudeste 0 -- -- 44
2019-08-01 12:00:00 23 5 Este 15 Nordeste 0 -- -- 50
2019-08-01 11:00:00 20.8 8 Nordeste 15 Nordeste 0 -- -- 58
2019-08-01 10:00:00 19 10 Nordeste 17 Nordeste 0 -- -- 61
2019-08-01 09:00:00 17.2 6 Norte 10 Norte 0 -- -- 65
2019-08-01 08:00:00 13.7 3 Noroeste 8 Noroeste 0 -- -- 80
2019-08-01 07:00:00 13.5 5 Noroeste 13 Noroeste 0 -- -- 79
2019-08-01 06:00:00 13.4 8 Noroeste 13 Noroeste 0 -- -- 79
2019-08-01 05:00:00 14.9 8 Noroeste 15 Noroeste 0 -- -- 72
2019-08-01 04:00:00 15.7 6 Noroeste 12 Nordeste 0 -- -- 72
2019-08-01 03:00:00 18.1 8 Nordeste 15 Nordeste 0 -- -- 64
2019-08-01 02:00:00 19.1 6 Norte 13 Nordeste 0 -- -- 61
2019-08-01 01:00:00 19.3 5 Norte 21 Nordeste 0 -- -- 58
2019-08-01 00:00:00 18.7 4 Nordeste 7 Noroeste 0 -- -- 51
2019-07-31 23:00:00 19.8 4 Noroeste 12 Oeste 0 -- -- 47
2019-07-31 22:00:00 22.5 8 Oeste 17 Noroeste 0 -- -- 40
2019-07-31 21:00:00 25.4 10 Norte 18 Norte 0 -- -- 32
2019-07-31 20:00:00 25.5 12 Norte 21 Norte 0 -- -- 33
2019-07-31 19:00:00 25.8 6 Nordeste 21 Nordeste 0 -- -- 32
2019-07-31 18:00:00 26 11 Nordeste 21 Nordeste 0 -- -- 32
2019-07-31 17:00:00 25.6 13 Norte 22 Nordeste 0 -- -- 33
2019-07-31 16:00:00 25.5 11 Nordeste 23 Nordeste 0 -- -- 34
2019-07-31 15:00:00 24 11 Nordeste 32 Nordeste 0 -- -- 38
2019-07-31 14:00:00 22.4 14 Nordeste 28 Nordeste 0 -- -- 42
2019-07-31 13:00:00 21 15 Nordeste 28 Nordeste 0 -- -- 47
2019-07-31 12:00:00 19.1 16 Nordeste 28 Nordeste 0 -- -- 53
2019-07-31 11:00:00 17.2 16 Nordeste 25 Nordeste 0 -- -- 60
2019-07-31 10:00:00 15.4 0 Calma 17 Norte 0 -- -- 65
2019-07-31 09:00:00 13.3 0 Calma 21 Norte 0 -- -- 74
2019-07-31 08:00:00 12.4 10 Norte 19 Noroeste 0 -- -- 78
2019-07-31 07:00:00 11.7 8 Norte 14 Norte 0 -- -- 81
2019-07-31 06:00:00 12.2 8 Nordeste 19 Norte 0 -- -- 78
2019-07-31 05:00:00 12.8 9 Nordeste 15 Nordeste 0 -- -- 75
2019-07-31 04:00:00 13.1 9 Nordeste 17 Nordeste 0 -- -- 73
2019-07-31 03:00:00 13.6 9 Nordeste 26 Este 0 -- -- 70
2019-07-31 02:00:00 14.6 17 Nordeste 26 Este 0 -- -- 65
2019-07-31 01:00:00 15.7 12 Nordeste 19 Nordeste 0 -- -- 62
2019-07-31 00:00:00 16.2 10 Nordeste 19 Nordeste 0 -- -- 47
2019-07-30 23:00:00 17.9 3 Oeste 12 Nordeste 0 -- -- 41
2019-07-30 22:00:00 19.7 12 Nordeste 14 Nordeste 0 -- -- 35
2019-07-30 21:00:00 23.4 10 Este 17 Este 0 -- -- 26
2019-07-30 20:00:00 24.4 13 Nordeste 21 Este 0 -- -- 26
2019-07-30 19:00:00 24.8 12 Este 19 Este 0 -- -- 26
2019-07-30 18:00:00 24.5 11 Este 22 Este 0 -- -- 28
2019-07-30 17:00:00 24.3 8 Nordeste 24 Sudeste 0 -- -- 27
2019-07-30 16:00:00 23.4 10 Nordeste 23 Este 0 -- -- 29
2019-07-30 15:00:00 22.7 9 Este 20 Nordeste 0 -- -- 32
2019-07-30 14:00:00 21.1 9 Nordeste 26 Nordeste 0 -- -- 35
2019-07-30 13:00:00 19.5 7 Norte 23 Nordeste 0 -- -- 44
2019-07-30 12:00:00 18.5 10 Nordeste 24 Nordeste 0 -- -- 47
2019-07-30 11:00:00 17.2 14 Nordeste 29 Norte 0 -- -- 47
2019-07-30 10:00:00 15.6 16 Norte 26 Norte 0 -- -- 51
2019-07-30 09:00:00 12.6 12 Norte 19 Noroeste 0 -- -- 64
2019-07-30 08:00:00 10 6 Noroeste 12 Oeste 0 -- -- 75
2019-07-30 07:00:00 9.2 8 Oeste 14 Noroeste 0 -- -- 78
2019-07-30 06:00:00 9.2 4 Oeste 9 Noroeste 0 -- -- 80
2019-07-30 05:00:00 9.6 2 Sudoeste 12 Noroeste 0 -- -- 76
2019-07-30 04:00:00 10.5 10 Noroeste 13 Noroeste 0 -- -- 72
2019-07-30 03:00:00 11 5 Oeste 15 Noroeste 0 -- -- 70
2019-07-30 02:00:00 12.4 10 Noroeste 14 Oeste 0 -- -- 64
2019-07-30 01:00:00 14.2 14 Oeste 17 Oeste 0 -- -- 58
2019-07-30 00:00:00 15 11 Oeste 17 Oeste 0 -- -- 55
2019-07-29 23:00:00 16.8 6 Noroeste 26 Oeste 0 -- -- 49
2019-07-29 22:00:00 18.6 13 Noroeste 40 Sudoeste 0 -- -- 43
2019-07-29 21:00:00 21 23 Oeste 39 Oeste 0 -- -- 38
2019-07-29 20:00:00 22.5 27 Oeste 42 Oeste 0 -- -- 35
2019-07-29 19:00:00 23.8 25 Oeste 50 Oeste 0 -- -- 32
2019-07-29 18:00:00 24.5 26 Oeste 44 Oeste 0 -- -- 30
2019-07-29 17:00:00 24 30 Oeste 48 Oeste 0 -- -- 31
2019-07-29 16:00:00 24.2 29 Oeste 44 Oeste 0 -- -- 30
2019-07-29 15:00:00 23.7 33 Oeste 49 Oeste 0 -- -- 32
2019-07-29 14:00:00 23.1 28 Oeste 41 Sudoeste 0 -- -- 36
2019-07-29 13:00:00 22 27 Oeste 41 Oeste 0 -- -- 42
2019-07-29 12:00:00 20.4 22 Oeste 35 Oeste 0 -- -- 53
2019-07-29 11:00:00 19.2 22 Oeste 35 Oeste 0 -- -- 60
2019-07-29 10:00:00 17.3 20 Oeste 34 Oeste 0 -- -- 66
2019-07-29 09:00:00 16 9 Sudoeste 18 Sudoeste 0 -- -- 54
2019-07-29 08:00:00 13.8 6 Sudoeste 17 Oeste 0 -- -- 55
2019-07-29 07:00:00 13.1 0 Calma 11 Oeste 0 -- -- 56
2019-07-29 06:00:00 13.6 3 Sudoeste 20 Oeste 0 -- -- 56
2019-07-29 05:00:00 15.2 12 Noroeste 21 Noroeste 0 -- -- 49
2019-07-29 04:00:00 15.6 3 Norte 10 Oeste 0 -- -- 47
2019-07-29 03:00:00 15.8 2 Nordeste 13 Oeste 0 -- -- 56
2019-07-29 02:00:00 17.3 0 Calma 21 Oeste 0 -- -- 57
2019-07-29 01:00:00 17.6 10 Oeste 16 Noroeste 0 -- -- 55
2019-07-29 00:00:00 19.6 13 Oeste 16 Oeste 0 -- -- 46
2019-07-28 23:00:00 20.3 9 Oeste 14 Sudoeste 0 -- -- 41
2019-07-28 22:00:00 21.9 13 Sudoeste 26 Oeste 0 -- -- 32
2019-07-28 21:00:00 26.4 19 Oeste 29 Oeste 0 -- -- 25
2019-07-28 20:00:00 27.5 16 Oeste 27 Sudoeste 0 -- -- 25
2019-07-28 19:00:00 27.6 13 Sudoeste 29 Oeste 0 -- -- 25
2019-07-28 18:00:00 27.4 13 Oeste 42 Oeste 0 -- -- 25
2019-07-28 17:00:00 26.6 14 Sudoeste 21 Sudoeste 0 -- -- 30
2019-07-28 16:00:00 25 5 Sudeste 24 Sudoeste 0 -- -- 32
2019-07-28 15:00:00 23.7 5 Norte 20 Este 0 -- -- 39
2019-07-28 14:00:00 21.8 7 Norte 19 Nordeste 0 -- -- 46
2019-07-28 13:00:00 20.2 6 Sudoeste 19 Este 0 -- -- 50
2019-07-28 12:00:00 19 11 Este 20 Este 0 -- -- 55
2019-07-28 11:00:00 17.4 8 Nordeste 17 Este 0 -- -- 61
2019-07-28 10:00:00 15.7 8 Este 13 Este 0 -- -- 71
2019-07-28 09:00:00 13.5 0 Calma 7 Noroeste 0 -- -- 82
2019-07-28 08:00:00 11 6 Oeste 12 Oeste 0 -- -- 91
2019-07-28 07:00:00 10.3 6 Oeste 9 Oeste 0 -- -- 92
2019-07-28 06:00:00 10.7 6 Noroeste 7 Noroeste 0 -- -- 91
2019-07-28 05:00:00 11.7 0 Calma 5 Nordeste 0 -- -- 88
2019-07-28 04:00:00 12.5 0 Calma 4 Nordeste 0 -- -- 83
2019-07-28 03:00:00 12.9 0 Calma 12 Nordeste 0 -- -- 84
2019-07-28 02:00:00 14 7 Este 17 Nordeste 0 -- -- 79
2019-07-28 01:00:00 15.2 11 Este 19 Este 0 -- -- 76
2019-07-28 00:00:00 16.8 12 Nordeste 23 Nordeste 0 -- -- 61
2019-07-27 23:00:00 17.9 12 Nordeste 17 Nordeste 0 -- -- 59
2019-07-26 12:00:00 -- -- -- -- -- -- -- -- --
2019-07-26 11:00:00 -- -- -- -- -- -- -- -- --
2019-07-26 10:00:00 -- -- -- -- -- -- -- -- --
2019-07-26 09:00:00 15.9 6 Noroeste 11 Noroeste 0 -- -- 76
2019-07-26 08:00:00 13.8 10 Noroeste 18 Oeste 0 -- -- 85
2019-07-26 07:00:00 13.7 12 Oeste 19 Oeste 0 -- -- 84
2019-07-26 06:00:00 15.4 10 Noroeste 26 Oeste 0 -- -- 78
2019-07-26 05:00:00 16.4 15 Sudoeste 23 Sudoeste 0 -- -- 76
2019-07-26 04:00:00 17.6 13 Sudoeste 21 Sudoeste 0 -- -- 71
2019-07-26 03:00:00 18.2 9 Oeste 28 Oeste 0 -- -- 71
2019-07-26 02:00:00 18.8 17 Oeste 25 Oeste 0 -- -- 74
2019-07-26 01:00:00 19.4 16 Oeste 24 Oeste 0 -- -- 73
2019-07-26 00:00:00 20.3 18 Oeste 30 Oeste 0 -- -- 71
2019-07-25 23:00:00 21.6 17 Oeste 32 Oeste 0 -- -- 66
2019-07-25 22:00:00 23.2 19 Oeste 33 Oeste 0 -- -- 57
2019-07-25 21:00:00 24.5 23 Oeste 36 Noroeste 0 -- -- 49
2019-07-25 20:00:00 25.7 26 Noroeste 41 Oeste 0 -- -- 48
2019-07-25 19:00:00 28.3 23 Oeste 39 Oeste 0 -- -- 39
2019-07-25 18:00:00 30.3 31 Oeste 44 Sudoeste 0 -- -- 30
2019-07-25 17:00:00 30.2 21 Sudoeste 39 Sudoeste 0 -- -- 31
2019-07-25 16:00:00 30.3 24 Sudoeste 37 Sudoeste 0 -- -- 34
2019-07-25 15:00:00 30 18 Sudoeste 37 Sudoeste 0 -- -- 35
2019-07-25 14:00:00 29.6 20 Sudoeste 35 Sudoeste 0 -- -- 32
2019-07-25 13:00:00 28.1 23 Sudoeste 35 Sudoeste 0 -- -- 32
2019-07-25 12:00:00 26.5 12 Sudoeste 25 Sudoeste 0 -- -- 41
2019-07-25 11:00:00 25.2 17 Sur 24 Sudoeste 0 -- -- 44
2019-07-25 10:00:00 23.7 6 Sudoeste 12 Sudoeste 0 -- -- 48
2019-07-25 09:00:00 21.4 3 Este 8 Sudoeste 0 -- -- 50
2019-07-25 08:00:00 17.6 4 Sudoeste 8 Sur 0 -- -- 66
2019-07-25 07:00:00 18.2 3 Sudeste 21 Sudoeste 0 -- -- 57
2019-07-25 06:00:00 19.6 17 Sudoeste 27 Oeste 0 -- -- 53
2019-07-25 05:00:00 20.5 23 Oeste 30 Sudoeste 0 -- -- 48
2019-07-25 04:00:00 21 21 Oeste 29 Oeste 0 -- -- 46
2019-07-25 03:00:00 21.7 11 Oeste 23 Oeste 0 -- -- 44
2019-07-25 02:00:00 22.9 17 Oeste 31 Oeste 0 -- -- 41
2019-07-25 01:00:00 24.4 23 Oeste 33 Oeste 0 -- -- 41
2019-07-25 00:00:00 25.2 20 Oeste 33 Oeste 0 -- -- 44
2019-07-24 23:00:00 26.6 24 Oeste 36 Oeste 0 -- -- 43
2019-07-24 22:00:00 28.7 19 Oeste 35 Oeste 0 -- -- 37
2019-07-24 21:00:00 32 15 Sudoeste 36 Sudoeste 0 -- -- 28
2019-07-24 20:00:00 33.3 22 Sudoeste 34 Sudoeste 0 -- -- 25
2019-07-24 19:00:00 33.9 22 Sudoeste 35 Sudoeste 0 -- -- 26
2019-07-24 18:00:00 34.1 21 Sur 46 Sudoeste 0 -- -- 26
2019-07-24 17:00:00 33.9 17 Sudoeste 38 Sudoeste 0 -- -- 25
2019-07-24 16:00:00 33.6 20 Sudoeste 37 Sudoeste 0 -- -- 26
2019-07-24 15:00:00 32.1 15 Sudoeste 28 Sur 0 -- -- 35
2019-07-24 14:00:00 30.8 15 Sudoeste 25 Sudoeste 0 -- -- 38
2019-07-24 13:00:00 28.9 6 Sudeste 14 Nordeste 0 -- -- 46
2019-07-24 12:00:00 26.3 5 Este 10 Este 0 -- -- 53
2019-07-24 11:00:00 24.3 4 Nordeste 14 Este 0 -- -- 60
2019-07-24 10:00:00 21.9 3 Noroeste 17 Noroeste 0 -- -- 68
2019-07-24 09:00:00 20.1 11 Noroeste 18 Noroeste 0 -- -- 76
2019-07-24 08:00:00 17.4 12 Oeste 14 Oeste 0 -- -- 88
2019-07-24 07:00:00 17.3 10 Noroeste 14 Oeste 0 -- -- 88
2019-07-24 06:00:00 17.8 11 Oeste 15 Oeste 0 -- -- 87
2019-07-24 05:00:00 18.3 0 Calma 14 Oeste 0 -- -- 86
2019-07-24 04:00:00 18.6 9 Noroeste 15 Noroeste 0 -- -- 83
2019-07-24 03:00:00 19.3 6 Noroeste 10 Noroeste 0 -- -- 85
2019-07-24 02:00:00 19.5 8 Oeste 19 Noroeste 0 -- -- 85
2019-07-24 01:00:00 20 8 Oeste 25 Este 0 -- -- 85
2019-07-24 00:00:00 20.6 0 Calma 14 Oeste 0 -- -- 83
2019-07-23 23:00:00 20.7 11 Oeste 18 Norte 0 -- -- 81
2019-07-23 22:00:00 22.1 17 Norte 24 Noroeste 0 -- -- 71
2019-07-23 21:00:00 22.5 14 Oeste 25 Sudoeste 0.8 -- -- 76
2019-07-23 20:00:00 22.3 20 Oeste 42 Oeste 0.6 -- -- 72
2019-07-23 19:00:00 29.9 18 Sur 29 Sur 0 -- -- 35
2019-07-23 18:00:00 29 14 Sudoeste 45 Sudoeste 0.4 -- -- 41
2019-07-23 17:00:00 32.5 11 Sudoeste 23 Sur 0 -- -- 33
2019-07-23 16:00:00 33 9 Sudoeste 24 Sudoeste 0 -- -- 32
2019-07-23 15:00:00 32.3 12 Sur 34 Sur 0 -- -- 34
2019-07-23 14:00:00 30.9 6 Nordeste 22 Sur 0 -- -- 35
2019-07-23 13:00:00 28.6 12 Nordeste 22 Este 0 -- -- 52
2019-07-23 12:00:00 26.6 8 Este 15 Este 0 -- -- 52
2019-07-23 11:00:00 22.8 3 Noroeste 13 Noroeste 0 -- -- 67
2019-07-23 10:00:00 21 9 Oeste 12 Oeste 0 -- -- 73
2019-07-23 09:00:00 20.3 4 Norte 8 Nordeste 0 -- -- 75
2019-07-23 08:00:00 18.7 4 Sudoeste 12 Nordeste 0 -- -- 87
2019-07-23 07:00:00 19 7 Noroeste 26 Sudoeste 0 -- -- 83
2019-07-23 06:00:00 18.5 10 Oeste 16 Oeste 0 -- -- 82
2019-07-23 05:00:00 18.7 5 Noroeste 9 Oeste 0 -- -- 84
2019-07-23 04:00:00 19.2 3 Oeste 10 Nordeste 0 -- -- 81
2019-07-23 03:00:00 19.9 5 Oeste 20 Oeste 0 -- -- 81
2019-07-23 02:00:00 20.3 6 Oeste 18 Este 0 -- -- 79
2019-07-23 01:00:00 21.3 4 Sur 38 Sur 0.6 -- -- 72
2019-07-23 00:00:00 21.8 14 Este 32 Norte 0 -- -- 66
2019-07-22 23:00:00 23.6 12 Noroeste 44 Oeste 0 -- -- 56
2019-07-22 22:00:00 24.7 10 Oeste 36 Norte 0 -- -- 53
2019-07-22 21:00:00 23.2 20 Noroeste 48 Sudeste 0.2 -- -- 62
2019-07-22 20:00:00 21 6 Sur 72 Sur 11.6 -- -- 77
2019-07-22 19:00:00 33.2 33 Sur 69 Sudeste 0 -- -- 27
2019-07-22 18:00:00 36.5 6 Este 18 Sudeste 0 -- -- 25
2019-07-22 17:00:00 35.1 10 Nordeste 28 Norte 0 -- -- 27
2019-07-22 16:00:00 34.6 5 Norte 14 Este 0 -- -- 29
2019-07-22 15:00:00 33.3 4 Noroeste 17 Nordeste 0 -- -- 32
2019-07-22 14:00:00 31.4 8 Nordeste 16 Nordeste 0 -- -- 38
2019-07-22 13:00:00 29.3 9 Nordeste 20 Nordeste 0 -- -- 44
2019-07-22 12:00:00 27.1 13 Nordeste 19 Norte 0 -- -- 50
2019-07-22 11:00:00 24.7 13 Nordeste 22 Nordeste 0 -- -- 58
2019-07-22 10:00:00 22.6 16 Nordeste 23 Nordeste 0 -- -- 65
2019-07-22 09:00:00 21.2 12 Norte 22 Norte 0 -- -- 69
2019-07-22 08:00:00 19.1 6 Norte 13 Norte 0 -- -- 80
2019-07-22 07:00:00 19 7 Norte 12 Norte 0 -- -- 79
2019-07-22 06:00:00 18.2 5 Noroeste 9 Noroeste 0 -- -- 82
2019-07-22 05:00:00 18.7 4 Noroeste 10 Norte 0 -- -- 81
2019-07-22 04:00:00 20 4 Norte 17 Norte 0 -- -- 75
2019-07-22 03:00:00 21.1 10 Norte 16 Norte 0 -- -- 72
2019-07-22 02:00:00 21.9 9 Nordeste 14 Nordeste 0 -- -- 69
2019-07-22 01:00:00 22.3 0 Calma 29 Este 0 -- -- 51
2019-07-22 00:00:00 23.8 9 Oeste 17 Oeste 0 -- -- 45
2019-07-21 23:00:00 25.6 12 Noroeste 19 Oeste 0 -- -- 40
2019-07-21 22:00:00 27.8 10 Oeste 12 Oeste 0 -- -- 36
2019-07-21 21:00:00 33.4 8 Noroeste 15 Oeste 0 -- -- 24
2019-07-21 20:00:00 34.2 13 Oeste 21 Noroeste 0 -- -- 21
2019-07-21 19:00:00 34.3 11 Oeste 26 Oeste 0 -- -- 23
2019-07-21 18:00:00 33.9 13 Oeste 24 Oeste 0 -- -- 24
2019-07-21 17:00:00 32.8 9 Nordeste 19 Nordeste 0 -- -- 28
2019-07-21 16:00:00 31.6 7 Este 19 Nordeste 0 -- -- 34
2019-07-21 15:00:00 29.8 11 Este 18 Este 0 -- -- 39
2019-07-21 14:00:00 28.1 7 Nordeste 23 Nordeste 0 -- -- 46
2019-07-21 13:00:00 26.4 11 Este 23 Nordeste 0 -- -- 50
2019-07-21 12:00:00 23.8 13 Nordeste 24 Nordeste 0 -- -- 56
2019-07-21 11:00:00 22 12 Nordeste 23 Nordeste 0 -- -- 63
2019-07-21 10:00:00 20 13 Nordeste 22 Norte 0 -- -- 70
2019-07-21 09:00:00 18.3 10 Norte 17 Norte 0 -- -- 78
2019-07-21 08:00:00 16.4 9 Noroeste 13 Norte 0 -- -- 86
2019-07-21 07:00:00 15.8 9 Noroeste 12 Noroeste 0 -- -- 86
2019-07-21 06:00:00 16.7 6 Norte 10 Nordeste 0 -- -- 83
2019-07-21 05:00:00 17.3 5 Nordeste 12 Norte 0 -- -- 81
2019-07-21 04:00:00 18 8 Norte 15 Nordeste 0 -- -- 78
2019-07-21 03:00:00 18.4 8 Nordeste 16 Nordeste 0 -- -- 75
2019-07-21 02:00:00 21.2 10 Nordeste 16 Nordeste 0 -- -- 58
2019-07-21 01:00:00 20.4 4 Noroeste 14 Noroeste 0 -- -- 55
2019-07-21 00:00:00 21.6 12 Noroeste 17 Oeste 0 -- -- 50
2019-07-20 23:00:00 22.8 10 Oeste 13 Oeste 0 -- -- 48
2019-07-20 22:00:00 26.1 6 Oeste 20 Oeste 0 -- -- 40
2019-07-20 21:00:00 29.6 18 Oeste 30 Oeste 0 -- -- 32
2019-07-20 20:00:00 31 18 Oeste 41 Oeste 0 -- -- 29
2019-07-20 19:00:00 31.9 26 Oeste 39 Oeste 0 -- -- 26
2019-07-20 18:00:00 32.6 24 Oeste 36 Sudoeste 0 -- -- 25
2019-07-20 17:00:00 32.5 17 Sudoeste 50 Oeste 0 -- -- 29
2019-07-20 16:00:00 32 16 Oeste 32 Oeste 0 -- -- 28
2019-07-20 15:00:00 31.3 16 Oeste 28 Oeste 0 -- -- 27
2019-07-20 14:00:00 30.2 12 Sudoeste 29 Sudoeste 0 -- -- 31
2019-07-20 13:00:00 28.6 11 Oeste 21 Oeste 0 -- -- 35
2019-07-20 12:00:00 27 9 Sudeste 18 Sur 0 -- -- 42
2019-07-20 11:00:00 24.5 10 Este 17 Nordeste 0 -- -- 54
2019-07-20 10:00:00 22.4 6 Este 10 Sudeste 0 -- -- 61
2019-07-20 09:00:00 20.6 4 Este 8 Norte 0 -- -- 64
2019-07-20 08:00:00 17 0 Calma 10 Sudoeste 0 -- -- 76
2019-07-20 07:00:00 15.6 7 Oeste 10 Oeste 0 -- -- 78
2019-07-20 06:00:00 16.4 0 Calma 8 Sudoeste 0 -- -- 76
2019-07-20 05:00:00 17.5 0 Calma 10 Nordeste 0 -- -- 72
2019-07-20 04:00:00 18.3 3 Oeste 6 Sudoeste 0 -- -- 70
2019-07-20 03:00:00 19.1 5 Sudoeste 9 Nordeste 0 -- -- 66
2019-07-20 02:00:00 20.6 7 Noroeste 9 Oeste 0 -- -- 63
2019-07-20 01:00:00 22.3 0 Calma 9 Noroeste 0 -- -- 56
2019-07-20 00:00:00 24 9 Oeste 14 Oeste 0 -- -- 50
2019-07-19 23:00:00 25.3 9 Noroeste 15 Noroeste 0 -- -- 46
2019-07-19 22:00:00 28.3 10 Oeste 21 Noroeste 0 -- -- 37
2019-07-19 21:00:00 31.3 16 Noroeste 29 Oeste 0 -- -- 30
2019-07-19 20:00:00 32.6 20 Oeste 33 Oeste 0 -- -- 26
2019-07-19 19:00:00 33.7 17 Oeste 34 Oeste 0 -- -- 24
2019-07-19 18:00:00 33.3 22 Oeste 37 Oeste 0 -- -- 24
2019-07-19 17:00:00 33.2 18 Oeste 41 Noroeste 0 -- -- 24
2019-07-19 16:00:00 33.6 15 Sudoeste 39 Sur 0 -- -- 24
2019-07-19 15:00:00 32.3 17 Sudoeste 30 Sudoeste 0 -- -- 26
2019-07-19 14:00:00 29.7 9 Nordeste 17 Este 0 -- -- 32
2019-07-19 13:00:00 27.5 8 Este 16 Este 0 -- -- 39
2019-07-19 12:00:00 25.1 9 Nordeste 20 Este 0 -- -- 46
2019-07-19 11:00:00 23.1 11 Nordeste 19 Norte 0 -- -- 50
2019-07-19 10:00:00 21 10 Nordeste 20 Noroeste 0 -- -- 54
2019-07-19 09:00:00 19 15 Norte 20 Norte 0 -- -- 62
2019-07-19 08:00:00 16.3 9 Noroeste 13 Noroeste 0 -- -- 72
2019-07-19 07:00:00 14.8 9 Noroeste 13 Noroeste 0 -- -- 75
2019-07-19 06:00:00 15.5 9 Noroeste 12 Noroeste 0 -- -- 73
2019-07-19 05:00:00 16.9 8 Norte 13 Norte 0 -- -- 68
2019-07-19 04:00:00 17.3 7 Norte 10 Norte 0 -- -- 65
2019-07-19 03:00:00 18.9 5 Norte 10 Nordeste 0 -- -- 63
2019-07-19 02:00:00 19.6 6 Nordeste 18 Nordeste 0 -- -- 60
2019-07-19 01:00:00 21.7 7 Nordeste 20 Nordeste 0 -- -- 53
2019-07-19 00:00:00 21.6 13 Oeste 19 Noroeste 0 -- -- 46
2019-07-18 23:00:00 23 6 Noroeste 8 Noroeste 0 -- -- 46
2019-07-18 22:00:00 27.1 2 Sur 9 Este 0 -- -- 37
2019-07-18 21:00:00 30.4 8 Este 15 Este 0 -- -- 27
2019-07-18 20:00:00 30.9 10 Este 19 Nordeste 0 -- -- 26
2019-07-18 19:00:00 31.2 9 Nordeste 21 Este 0 -- -- 25
2019-07-18 18:00:00 31.2 9 Este 27 Este 0 -- -- 27
2019-07-18 17:00:00 30.6 8 Sudeste 33 Nordeste 0 -- -- 29
2019-07-18 16:00:00 29.6 9 Nordeste 20 Nordeste 0 -- -- 30
2019-07-18 15:00:00 28.1 7 Este 17 Este 0 -- -- 36
2019-07-18 14:00:00 26.6 9 Norte 18 Nordeste 0 -- -- 36
2019-07-18 13:00:00 24.4 6 Este 16 Nordeste 0 -- -- 42
2019-07-18 12:00:00 22.5 9 Nordeste 18 Este 0 -- -- 49
2019-07-18 11:00:00 20.4 11 Nordeste 22 Este 0 -- -- 57
2019-07-18 10:00:00 18.6 12 Este 19 Nordeste 0 -- -- 64
2019-07-18 09:00:00 17.1 12 Nordeste 19 Nordeste 0 -- -- 70
2019-07-18 08:00:00 15.2 7 Norte 11 Norte 0 -- -- 81
2019-07-18 07:00:00 14.3 7 Norte 12 Norte 0 -- -- 84
2019-07-18 06:00:00 15.1 7 Norte 13 Norte 0 -- -- 79
2019-07-18 05:00:00 15.4 6 Norte 10 Norte 0 -- -- 78
2019-07-18 04:00:00 16.1 5 Nordeste 13 Nordeste 0 -- -- 75
2019-07-18 03:00:00 16.5 7 Nordeste 21 Este 0 -- -- 74
2019-07-18 02:00:00 17.4 13 Este 26 Este 0 -- -- 71
2019-07-18 01:00:00 18.1 15 Este 26 Este 0 -- -- 71
2019-07-18 00:00:00 19.3 10 Este 36 Nordeste 0 -- -- 66